Terminal Aerodrome Forecast
Issued by NWS

Home | Current Version | Previous Version | Text Only | Print | Product List | Glossary On
Versions: 1 2 3 4 5 6 7 8 9 10 11 12 13 14 15 16 17 18
381
FTUS45 KTFX 280520
TAFLWT
TAF
KLWT 280520Z 2806/0106 19010KT P6SM SCT060 BKN100
     FM281400 27011KT P6SM VCSH SCT040 BKN070 PROB30 2821/0101 4SM
      -SHSN BR BKN025
     FM010100 31011KT P6SM VCSH SCT035 BKN060=

USA.gov is the U.S. government's official web portal to all federal, state and local government web resources and services.